Главная страница
METAR-TAF:

METAR-TAF

Аэропорты :

Ringkøbing-Skjern, Дания

широта: 56-00N, долгота: 008-21E, высота над уровнем моря: 5 м

Текущие метеонаблюдения

Эта сводка был подготовлена 19 минут назад, в 14:50 UTC
Ветер 13 Узел от восточно-северо-восточный
Температура 8°C
Влажность 93%
Давление 1010 hPa
Видимость 10 км и более
Рассеянная облачность на высоте 2000 фута

METAR: EKVJ 151450Z 07013KT 9999 BKN020 08/07 Q1010

Время: 16:09 (15:09 UTC)

Прогноз

Эта сводка был подготовлена 3 часа и 15 минут назад, в 11:54 UTC
Прогноз действительный с 15-го 12 UTC до 15-го 16 UTC
Ветер 12 Узел от восточно-северо-восточный
Видимость 10 км и более
Рассеянная облачность на высоте 2000 фута
временами
С 15-го 12 UTC до 15-го 16 UTC
Ветер 15 Узел от восточный с порывами до 25 Узел
Рассеянная облачность на высоте 1200 фута

TAF: EKVJ 151154Z 1512/1516 07012KT 9999 BKN020 TEMPO 1512/1516 08015G25KT BKN012

Метеонаблюдения и прогнозы для более 4000 аэропортов (сводки METAR и TAF).

Имеющиеся станции представлены на карте желтыми и красными точками.

Чтобы увидеть название станции, наведите на нее мышь.

Затем щелкните, чтобы увидеть метеонаблюдения и метеопрогнозы.

Управление картой: чтобы увеличить масштаб, щелкните зеленые кнопки с черным крестиком; чтобы уменьшить масштаб, щелкните зеленую кнопку с тире; для просмотра соседних карт щелкайте зеленые стрелки.


METAR-TAF: